Main page
METAR-TAF:

METAR-TAF

Airports :

Naval Station Rota

Rota, Spain

latitude: 36-39N, longitude: 006-21W, elevation: 26 m

Current weather observation

The report was made 55 minutes ago, at 04:00 UTC
Wind 4 kt from the East
Temperature 8°C
Humidity 93%
Pressure 1020 hPa
Visibility 10 km or more
Broken clouds at a height of 5000 ft

METAR: LERT 160400Z 08004KT 9999 BKN050 08/07 Q1020 NOSIG

Time: 05:55 (04:55 UTC)

Forecast

The report was made 2 hours and 55 minutes ago, at 02:00 UTC
Forecast valid from 16 at 03 UTC to 16 at 12 UTC
Wind 4 kt from the East
Visibility 10 km or more
Scattered clouds at a height of 2000 ft

TAF: LERT 160200Z 1603/1612 10004KT 9999 SCT020

Weather observations and forecasts of more than 4000 airports (METAR and TAF reports).

The available stations are represented by yellow and red dots on the map.

Hover mouse over dot to see the name of the station.

Then click to see weather observations and forecasts.

To change the map : click on the green buttons with a black cross to zoom in, on the green button with a dash to zoom out, or on the green arrows for adjacent maps.


METAR-TAF: